Time;durP1;ratioP1;P1;durP2;ratioP2;P2;SDS_P1;SDS_P2;PMS_P1;PMS_P2;Temp;Humidity;BMP_temperature;BMP_pressure;BME280_temperature;BME280_humidity;BME280_pressure;Samples;Min_cycle;Max_cycle;Signal;HPM_P1;HPM_P2
2022/06/20 00:02:23;;;;;;;18.33;2.97;;;16.00;99.90;;;;;;5075501;28;20033;-69
2022/06/20 00:04:51;;;;;;;9.38;2.08;;;15.90;99.90;;;;;;5075766;28;20032;-67
2022/06/20 00:07:16;;;;;;;13.65;2.58;;;16.10;99.90;;;;;;5075631;28;20039;-68
2022/06/20 00:09:42;;;;;;;8.95;2.42;;;16.00;99.90;;;;;;5075512;28;20119;-69
2022/06/20 00:12:14;;;;;;;12.80;2.58;;;16.10;99.90;;;;;;5075772;28;20085;-68
2022/06/20 00:14:39;;;;;;;11.32;2.70;;;16.10;99.90;;;;;;5075372;28;20025;-67
2022/06/20 00:17:14;;;;;;;14.25;2.63;;;16.10;99.90;;;;;;5075534;28;20025;-68
2022/06/20 00:19:42;;;;;;;9.95;2.50;;;16.20;99.90;;;;;;5075437;28;20036;-68
2022/06/20 00:22:09;;;;;;;10.60;2.30;;;16.20;99.90;;;;;;5057526;28;20015;-68
2022/06/20 00:24:35;;;;;;;11.43;2.25;;;16.30;99.90;;;;;;5076234;28;20408;-69
2022/06/20 00:27:06;;;;;;;13.75;2.20;;;16.30;99.90;;;;;;5075322;28;20021;-69
2022/06/20 00:29:37;;;;;;;11.10;2.40;;;16.30;99.90;;;;;;5075490;28;20020;-68
2022/06/20 00:32:04;;;;;;;10.32;2.95;;;16.30;99.90;;;;;;5075279;28;20032;-67
2022/06/20 00:34:30;;;;;;;19.77;2.75;;;16.40;99.90;;;;;;5057619;28;20027;-69
2022/06/20 00:36:56;;;;;;;12.98;2.80;;;16.50;99.90;;;;;;5075013;28;20032;-68
2022/06/20 00:39:22;;;;;;;12.35;2.42;;;16.50;99.90;;;;;;5075609;28;20025;-68
2022/06/20 00:41:49;;;;;;;17.55;2.58;;;16.50;99.90;;;;;;5074246;28;20153;-69
2022/06/20 00:44:24;;;;;;;13.40;2.58;;;16.30;99.90;;;;;;5108040;28;20066;-68
2022/06/20 00:46:54;;;;;;;9.48;2.00;;;16.00;99.90;;;;;;5091837;28;20020;-67
2022/06/20 00:49:22;;;;;;;9.82;2.53;;;16.10;99.90;;;;;;5081884;28;20503;-67
2022/06/20 00:52:15;;;;;;;7.00;1.65;;;16.00;99.90;;;;;;5082286;28;20536;-68
2022/06/20 00:54:46;;;;;;;13.82;2.60;;;15.80;99.90;;;;;;5082910;28;20048;-67
2022/06/20 00:57:32;;;;;;;8.38;2.35;;;16.00;99.90;;;;;;5094958;28;20043;-67
2022/06/20 01:00:06;;;;;;;12.20;2.25;;;15.90;99.90;;;;;;5085407;28;20450;-68
2022/06/20 01:02:36;;;;;;;15.05;1.95;;;15.80;99.90;;;;;;5091373;28;20028;-68
2022/06/20 01:05:19;;;;;;;7.95;1.77;;;15.70;99.90;;;;;;5087482;28;20036;-68
2022/06/20 01:08:11;;;;;;;10.45;2.28;;;15.60;99.90;;;;;;5094604;28;20077;-68
2022/06/20 01:10:51;;;;;;;14.07;2.65;;;15.70;99.90;;;;;;5095068;28;20032;-68
2022/06/20 01:13:20;;;;;;;13.35;2.20;;;15.60;99.90;;;;;;5068189;28;20384;-68
2022/06/20 01:15:50;;;;;;;10.40;2.22;;;15.70;99.90;;;;;;5094928;28;20024;-67
2022/06/20 01:18:20;;;;;;;15.30;2.47;;;15.70;99.90;;;;;;5080260;28;20404;-68
2022/06/20 01:20:48;;;;;;;6.25;1.60;;;15.70;99.90;;;;;;5094903;28;20061;-67
2022/06/20 01:23:34;;;;;;;10.30;2.00;;;15.80;99.90;;;;;;5094394;28;20065;-68
2022/06/20 01:26:24;;;;;;;14.27;2.20;;;15.80;99.90;;;;;;5094813;28;20073;-68
2022/06/20 01:28:57;;;;;;;11.55;2.53;;;16.00;99.90;;;;;;5071149;28;20487;-67
2022/06/20 01:31:24;;;;;;;9.77;2.40;;;15.90;99.90;;;;;;5094268;28;20081;-68
2022/06/20 01:33:51;;;;;;;11.35;2.20;;;15.90;99.90;;;;;;5094441;28;20044;-69
2022/06/20 01:39:05;;;;;;;13.13;2.42;;;15.70;99.90;;;;;;5093960;28;20047;-67
2022/06/20 01:44:17;;;;;;;14.48;2.08;;;15.80;99.90;;;;;;5094763;28;20568;-67
2022/06/20 01:46:43;;;;;;;9.68;1.80;;;15.70;99.90;;;;;;5086901;28;20030;-68
2022/06/20 01:49:19;;;;;;;11.20;1.75;;;15.60;99.90;;;;;;5093930;28;20089;-67
2022/06/20 01:51:56;;;;;;;9.05;1.60;;;15.70;99.90;;;;;;5079805;28;20120;-69
2022/06/20 01:54:25;;;;;;;13.80;1.80;;;15.60;99.90;;;;;;5093146;28;20040;-68
2022/06/20 01:56:52;;;;;;;9.27;2.10;;;15.40;99.90;;;;;;5086916;28;20528;-68
2022/06/20 01:59:55;;;;;;;10.93;2.22;;;15.40;99.90;;;;;;5066356;28;20063;-68
2022/06/20 02:02:21;;;;;;;13.50;2.10;;;15.40;99.90;;;;;;5093715;28;20107;-68
2022/06/20 02:04:47;;;;;;;19.75;2.92;;;15.40;99.90;;;;;;5088630;28;20107;-68
2022/06/20 02:07:13;;;;;;;9.23;2.75;;;15.30;99.90;;;;;;5093724;28;20055;-68
2022/06/20 02:09:41;;;;;;;8.98;1.77;;;15.50;99.90;;;;;;5093681;28;20509;-68
2022/06/20 02:12:09;;;;;;;7.10;1.52;;;15.50;99.90;;;;;;5093504;28;20047;-67
2022/06/20 02:14:52;;;;;;;13.95;2.13;;;15.40;99.90;;;;;;5075688;28;20013;-68
2022/06/20 02:17:28;;;;;;;9.82;2.42;;;15.30;99.90;;;;;;5075314;28;20036;-68
2022/06/20 02:19:56;;;;;;;12.32;2.30;;;15.40;99.90;;;;;;5093811;28;20028;-68
2022/06/20 02:22:25;;;;;;;8.27;1.95;;;15.30;99.90;;;;;;5093429;28;20016;-68
2022/06/20 02:24:56;;;;;;;14.48;2.72;;;15.20;99.90;;;;;;5093539;28;20039;-68
2022/06/20 02:27:56;;;;;;;9.65;2.35;;;15.20;99.90;;;;;;5093667;28;20365;-67
2022/06/20 02:30:22;;;;;;;16.33;2.33;;;15.20;99.90;;;;;;5062422;28;20125;-67
2022/06/20 02:33:00;;;;;;;12.20;2.30;;;15.30;99.90;;;;;;5093232;28;20031;-68
2022/06/20 02:35:26;;;;;;;13.23;2.75;;;15.20;99.90;;;;;;5093347;28;20491;-67
2022/06/20 02:37:52;;;;;;;16.55;2.28;;;15.20;99.90;;;;;;5092973;28;20058;-68
2022/06/20 02:40:22;;;;;;;16.00;3.03;;;15.20;99.90;;;;;;5093051;28;20028;-68
2022/06/20 02:43:22;;;;;;;14.95;2.08;;;15.30;99.90;;;;;;5092952;28;20024;-68
2022/06/20 02:45:50;;;;;;;10.02;2.10;;;15.30;99.90;;;;;;5039644;28;20036;-68
2022/06/20 02:48:17;;;;;;;12.48;2.80;;;15.20;99.90;;;;;;5090413;28;20035;-67
2022/06/20 02:50:53;;;;;;;10.10;2.10;;;15.10;99.90;;;;;;5087173;28;20026;-67
2022/06/20 02:53:32;;;;;;;16.10;2.15;;;15.10;99.90;;;;;;5068273;28;20490;-67
2022/06/20 02:55:58;;;;;;;11.20;2.28;;;15.10;99.90;;;;;;5066341;28;20515;-68
2022/06/20 02:58:31;;;;;;;8.80;2.08;;;15.10;99.90;;;;;;5092938;28;20036;-67
2022/06/20 03:01:07;;;;;;;13.27;2.55;;;15.10;99.90;;;;;;5092704;28;20024;-67
2022/06/20 03:03:43;;;;;;;11.32;2.20;;;15.10;99.90;;;;;;5070617;28;20054;-68
2022/06/20 03:06:14;;;;;;;13.65;1.95;;;15.10;99.90;;;;;;5092687;28;20115;-68
2022/06/20 03:08:41;;;;;;;10.85;2.63;;;15.10;99.90;;;;;;5074389;28;20502;-68
2022/06/20 03:11:09;;;;;;;10.88;2.20;;;15.20;99.90;;;;;;5092758;28;20048;-68
2022/06/20 03:13:38;;;;;;;12.52;2.58;;;15.20;99.90;;;;;;5093082;28;20115;-68
2022/06/20 03:16:06;;;;;;;12.18;2.55;;;15.00;99.90;;;;;;5093049;28;20024;-68
2022/06/20 03:18:38;;;;;;;13.40;2.90;;;14.90;99.90;;;;;;5092905;28;20038;-67
2022/06/20 03:21:05;;;;;;;13.57;2.53;;;15.00;99.90;;;;;;5092633;28;20536;-68
2022/06/20 03:23:33;;;;;;;12.45;2.58;;;15.00;99.90;;;;;;5092681;28;20020;-68
2022/06/20 03:26:03;;;;;;;9.70;2.70;;;15.10;99.90;;;;;;5092666;28;20093;-67
2022/06/20 03:28:32;;;;;;;9.23;2.50;;;15.00;99.90;;;;;;5092038;28;20325;-68
2022/06/20 03:30:59;;;;;;;12.77;3.70;;;15.10;99.90;;;;;;5092473;28;20013;-68
2022/06/20 03:33:26;;;;;;;15.23;3.17;;;15.10;99.90;;;;;;5092978;28;20449;-68
2022/06/20 03:35:57;;;;;;;12.23;2.67;;;15.20;99.90;;;;;;5092640;28;20469;-68
2022/06/20 03:38:23;;;;;;;;;;;15.30;99.90;;;;;;5092812;28;20135;-68
2022/06/20 03:40:50;;;;;;;12.50;2.30;;;15.40;99.90;;;;;;5092376;28;19956;-68
2022/06/20 03:43:20;;;;;;;14.77;2.97;;;15.40;99.90;;;;;;5092435;28;20043;-67
2022/06/20 03:45:51;;;;;;;15.38;3.47;;;15.40;99.90;;;;;;5091714;28;20044;-68
2022/06/20 03:48:24;;;;;;;16.17;3.20;;;15.50;99.90;;;;;;5089851;28;20115;-67
2022/06/20 03:51:00;;;;;;;16.73;2.92;;;15.40;99.90;;;;;;5085717;28;20460;-68
2022/06/20 03:53:46;;;;;;;17.25;3.22;;;15.40;99.90;;;;;;5086271;28;20040;-67
2022/06/20 03:56:25;;;;;;;11.27;2.72;;;15.50;99.90;;;;;;5069802;28;20107;-67
2022/06/20 03:58:53;;;;;;;16.35;3.03;;;15.50;99.90;;;;;;5091909;28;20068;-68
2022/06/20 04:01:35;;;;;;;17.40;2.85;;;15.60;99.90;;;;;;5092354;28;20016;-68
2022/06/20 04:04:16;;;;;;;11.50;2.70;;;15.50;99.90;;;;;;5087083;28;20115;-69
2022/06/20 04:06:52;;;;;;;18.08;3.10;;;15.50;99.90;;;;;;5092140;28;20032;-68
2022/06/20 04:12:33;;;;;;;13.52;3.20;;;15.60;99.90;;;;;;5092118;28;20032;-68
2022/06/20 04:15:12;;;;;;;18.55;3.72;;;15.50;99.90;;;;;;5092368;28;20036;-68
2022/06/20 04:20:55;;;;;;;15.25;3.10;;;15.40;99.90;;;;;;5095558;28;20495;-68
2022/06/20 04:23:36;;;;;;;12.15;2.70;;;15.50;99.90;;;;;;5087714;28;20068;-67
2022/06/20 04:26:18;;;;;;;14.20;2.88;;;15.50;99.90;;;;;;5092008;28;20056;-67
2022/06/20 04:29:09;;;;;;;12.65;3.08;;;15.60;99.90;;;;;;5095697;28;20024;-67
2022/06/20 04:31:50;;;;;;;17.38;3.17;;;15.70;99.90;;;;;;5067212;28;20015;-67
2022/06/20 04:34:25;;;;;;;12.38;3.13;;;15.60;99.90;;;;;;5095739;28;20064;-69
2022/06/20 04:36:57;;;;;;;18.77;3.67;;;15.60;99.90;;;;;;5095267;28;20107;-67
2022/06/20 04:39:56;;;;;;;13.23;2.45;;;15.70;99.90;;;;;;5095443;28;20039;-67
2022/06/20 04:42:43;;;;;;;12.52;2.63;;;15.70;99.90;;;;;;5095205;28;20529;-68
2022/06/20 04:45:18;;;;;;;12.35;2.67;;;15.60;99.90;;;;;;5095678;28;20111;-67
2022/06/20 04:47:59;;;;;;;13.00;3.00;;;15.70;99.90;;;;;;5072917;28;20106;-68
2022/06/20 04:50:29;;;;;;;12.98;2.78;;;15.60;99.90;;;;;;5065634;28;20043;-68
2022/06/20 04:52:59;;;;;;;11.15;2.50;;;15.70;99.90;;;;;;5084829;28;20035;-67
2022/06/20 04:55:28;;;;;;;12.50;2.17;;;15.70;99.90;;;;;;5095201;28;20039;-68
2022/06/20 04:57:57;;;;;;;23.05;2.55;;;15.80;99.90;;;;;;5094994;28;20043;-68
2022/06/20 05:00:38;;;;;;;15.57;2.45;;;15.90;99.90;;;;;;5095041;28;20012;-67
2022/06/20 05:03:06;;;;;;;18.48;2.28;;;15.70;99.90;;;;;;5094773;28;20035;-67
2022/06/20 05:05:37;;;;;;;10.25;2.17;;;15.70;99.90;;;;;;5072304;28;20117;-68
2022/06/20 05:08:09;;;;;;;8.43;1.83;;;15.60;99.90;;;;;;5094768;28;20035;-68
2022/06/20 05:10:39;;;;;;;;;;;15.50;99.90;;;;;;5095262;28;20381;-67
2022/06/20 05:13:12;;;;;;;13.63;2.17;;;15.70;99.90;;;;;;5076614;28;19915;-68
2022/06/20 05:15:40;;;;;;;11.70;2.22;;;15.60;99.90;;;;;;5094813;28;20051;-67
2022/06/20 05:18:27;;;;;;;15.13;3.03;;;15.80;99.90;;;;;;5094593;28;20058;-67
2022/06/20 05:20:57;;;;;;;14.73;2.10;;;15.90;99.90;;;;;;5076210;28;20066;-68
2022/06/20 05:23:40;;;;;;;8.55;2.15;;;15.90;99.90;;;;;;5094712;28;20039;-67
2022/06/20 05:26:10;;;;;;;9.27;2.35;;;15.90;99.90;;;;;;5094578;28;20053;-68
2022/06/20 05:28:39;;;;;;;9.57;2.30;;;16.00;99.90;;;;;;5094397;28;20521;-68
2022/06/20 05:31:06;;;;;;;12.32;2.33;;;15.90;99.90;;;;;;5094458;28;20098;-68
2022/06/20 05:33:43;;;;;;;16.00;2.22;;;16.00;99.90;;;;;;5093925;28;20024;-68
2022/06/20 05:36:21;;;;;;;7.90;2.58;;;16.10;99.90;;;;;;5094400;28;20110;-68
2022/06/20 05:38:57;;;;;;;11.15;2.15;;;16.00;99.90;;;;;;5094009;28;20424;-67
2022/06/20 05:41:23;;;;;;;8.55;2.33;;;16.10;99.90;;;;;;5094388;28;20039;-68
2022/06/20 05:43:49;;;;;;;7.18;1.60;;;16.10;99.90;;;;;;5094043;28;20049;-69
2022/06/20 05:46:36;;;;;;;7.07;1.88;;;16.20;99.90;;;;;;5090098;28;20016;-69
2022/06/20 05:49:06;;;;;;;13.02;1.85;;;16.20;99.90;;;;;;5093755;28;20016;-69
2022/06/20 05:51:37;;;;;;;11.77;2.05;;;16.40;99.90;;;;;;5081526;28;20028;-68
2022/06/20 05:54:29;;;;;;;10.40;2.47;;;16.70;99.90;;;;;;5093142;28;20464;-67
2022/06/20 05:57:18;;;;;;;10.93;1.98;;;16.60;99.90;;;;;;5086844;28;20358;-68
2022/06/20 05:59:48;;;;;;;12.95;2.15;;;16.70;99.90;;;;;;5093922;28;20036;-68
2022/06/20 06:02:32;;;;;;;10.43;2.03;;;16.90;99.90;;;;;;5093778;28;20388;-68
2022/06/20 06:05:13;;;;;;;14.13;1.85;;;16.90;99.90;;;;;;5070381;28;20507;-68
2022/06/20 06:08:23;;;;;;;15.55;2.58;;;16.70;99.90;;;;;;5093808;28;20027;-68
2022/06/20 06:10:53;;;;;;;8.75;2.20;;;16.90;99.90;;;;;;5077578;28;20143;-67
2022/06/20 06:13:19;;;;;;;7.30;1.80;;;16.70;99.90;;;;;;5093788;28;20107;-68
2022/06/20 06:18:39;;;;;;;8.55;1.80;;;17.10;99.90;;;;;;5077022;28;20047;-67
2022/06/20 06:21:06;;;;;;;12.18;2.30;;;17.10;99.90;;;;;;5086849;28;20027;-66
2022/06/20 06:23:32;;;;;;;11.98;2.70;;;16.90;99.90;;;;;;5091835;28;20111;-67
2022/06/20 06:25:58;;;;;;;9.82;1.83;;;16.90;99.90;;;;;;5087696;28;20073;-67
2022/06/20 06:28:26;;;;;;;6.35;1.42;;;17.00;99.90;;;;;;5089889;28;20024;-69
2022/06/20 06:31:06;;;;;;;7.00;1.48;;;17.30;99.90;;;;;;5078916;28;20419;-71
2022/06/20 06:33:41;;;;;;;11.95;2.10;;;17.40;99.90;;;;;;5086455;28;20048;-68
2022/06/20 06:36:14;;;;;;;7.50;1.95;;;17.40;99.90;;;;;;5076349;28;20493;-68
2022/06/20 06:38:41;;;;;;;6.85;1.95;;;17.20;99.90;;;;;;5073340;28;20072;-69
2022/06/20 06:41:17;;;;;;;8.80;1.88;;;17.10;99.90;;;;;;5073271;28;20496;-69
2022/06/20 06:43:45;;;;;;;6.45;1.67;;;17.20;99.90;;;;;;5065508;28;20031;-68
2022/06/20 06:46:21;;;;;;;16.05;2.65;;;17.30;99.90;;;;;;5074117;28;20071;-68
2022/06/20 06:49:26;;;;;;;8.85;2.00;;;17.30;99.90;;;;;;5085433;28;20032;-68
2022/06/20 06:52:28;;;;;;;10.93;2.03;;;17.30;99.90;;;;;;5088724;28;20043;-69
2022/06/20 06:55:17;;;;;;;10.73;2.42;;;17.50;99.90;;;;;;5059801;28;20056;-67
2022/06/20 06:57:59;;;;;;;12.13;2.20;;;17.10;99.90;;;;;;5063620;28;20040;-69
2022/06/20 07:00:36;;;;;;;11.32;2.50;;;16.90;99.90;;;;;;5085000;28;20031;-68
2022/06/20 07:03:12;;;;;;;7.60;2.28;;;17.10;99.90;;;;;;5078376;28;20053;-68
2022/06/20 07:05:45;;;;;;;10.85;1.90;;;17.30;99.90;;;;;;5069485;28;20024;-69
2022/06/20 07:08:41;;;;;;;6.50;1.70;;;17.60;99.90;;;;;;5079827;28;20426;-69
2022/06/20 07:11:25;;;;;;;10.32;1.88;;;17.50;99.90;;;;;;5081952;28;20868;-70
2022/06/20 07:14:11;;;;;;;6.78;1.70;;;17.80;99.90;;;;;;5070817;28;20028;-68
2022/06/20 07:16:45;;;;;;;12.43;2.20;;;17.90;99.90;;;;;;5082506;28;20034;-68
2022/06/20 07:19:13;;;;;;;7.40;2.00;;;17.60;99.90;;;;;;5053768;28;20037;-69
2022/06/20 07:21:41;;;;;;;9.23;2.45;;;17.50;99.90;;;;;;5078815;28;20048;-69
2022/06/20 07:24:13;;;;;;;7.55;1.83;;;17.50;99.90;;;;;;5083709;28;20059;-68
2022/06/20 07:27:01;;;;;;;4.90;1.60;;;17.80;99.90;;;;;;5073223;28;20036;-72
2022/06/20 07:29:39;;;;;;;7.90;1.67;;;18.10;99.90;;;;;;5074311;28;20052;-69
2022/06/20 07:32:16;;;;;;;4.30;1.52;;;18.10;99.90;;;;;;5081902;28;20031;-68
2022/06/20 07:34:52;;;;;;;10.50;2.50;;;17.90;99.90;;;;;;5075100;28;20096;-68
2022/06/20 07:37:44;;;;;;;9.15;1.95;;;17.90;99.90;;;;;;5088394;28;20115;-68
2022/06/20 07:40:29;;;;;;;11.40;1.70;;;18.10;99.90;;;;;;5071923;28;20448;-67
2022/06/20 07:43:08;;;;;;;12.18;2.45;;;18.50;99.90;;;;;;5072256;28;20079;-69
2022/06/20 07:45:47;;;;;;;9.48;2.10;;;18.50;99.90;;;;;;5084644;28;20128;-67
2022/06/20 07:48:28;;;;;;;11.68;2.28;;;18.50;99.90;;;;;;5071756;28;20471;-71
2022/06/20 07:51:05;;;;;;;5.35;1.88;;;18.90;99.90;;;;;;5074444;28;20093;-68
2022/06/20 07:54:00;;;;;;;8.32;1.85;;;19.30;99.90;;;;;;5093739;28;20040;-69
2022/06/20 07:56:38;;;;;;;7.80;1.60;;;19.60;99.90;;;;;;5095675;28;20052;-69
2022/06/20 07:59:20;;;;;;;10.77;2.20;;;19.50;99.90;;;;;;5095286;28;20043;-66
2022/06/20 08:02:17;;;;;;;6.55;2.10;;;19.60;99.90;;;;;;5078390;28;20541;-69
2022/06/20 08:04:45;;;;;;;8.18;2.30;;;19.60;99.90;;;;;;5064341;28;20052;-69
2022/06/20 08:07:28;;;;;;;19.15;2.50;;;19.60;99.90;;;;;;5072555;28;20017;-68
2022/06/20 08:10:03;;;;;;;10.90;2.33;;;19.10;99.90;;;;;;5080204;28;20492;-68
2022/06/20 08:13:01;;;;;;;8.60;2.78;;;19.10;99.90;;;;;;5076297;28;20116;-68
2022/06/20 08:15:33;;;;;;;8.43;3.38;;;19.30;99.90;;;;;;5068705;28;20085;-68
2022/06/20 08:18:00;;;;;;;10.68;3.35;;;19.00;99.90;;;;;;5070061;28;20025;-69
2022/06/20 08:20:30;;;;;;;8.88;2.55;;;18.50;99.90;;;;;;5076846;28;20028;-68
2022/06/20 08:23:14;;;;;;;13.88;2.38;;;18.30;99.90;;;;;;5074672;28;20036;-68
2022/06/20 08:26:06;;;;;;;7.18;2.65;;;18.50;99.90;;;;;;5072052;28;20059;-69
2022/06/20 08:28:40;;;;;;;7.68;2.42;;;18.40;99.90;;;;;;5074673;28;20111;-69
2022/06/20 08:31:18;;;;;;;5.10;2.40;;;18.10;99.90;;;;;;5087275;28;20017;-68
2022/06/20 08:34:26;;;;;;;8.30;2.25;;;18.20;99.90;;;;;;5073103;28;20066;-69
2022/06/20 08:37:04;;;;;;;9.52;2.58;;;18.10;99.90;;;;;;5074779;28;20546;-69
2022/06/20 08:39:38;;;;;;;7.78;3.08;;;18.50;99.90;;;;;;5078648;28;20028;-68
2022/06/20 08:42:29;;;;;;;10.65;2.83;;;19.00;99.90;;;;;;5063587;28;20028;-69
2022/06/20 08:45:32;;;;;;;8.05;2.08;;;19.60;99.90;;;;;;5077885;28;20017;-69
2022/06/20 08:48:42;;;;;;;8.13;2.25;;;19.80;99.70;;;;;;5073977;28;20039;-68
2022/06/20 08:51:19;;;;;;;11.07;2.90;;;19.60;99.90;;;;;;5085750;28;20496;-68
2022/06/20 08:54:00;;;;;;;5.97;2.70;;;19.20;99.90;;;;;;5072740;28;20024;-69
2022/06/20 08:57:03;;;;;;;9.52;2.88;;;19.10;99.90;;;;;;5086385;28;20384;-69
2022/06/20 08:59:32;;;;;;;10.82;2.85;;;18.90;99.90;;;;;;5090270;28;20086;-69
2022/06/20 09:01:58;;;;;;;8.73;2.58;;;18.80;99.90;;;;;;5085947;28;20473;-69
2022/06/20 09:04:50;;;;;;;8.05;2.92;;;18.90;99.90;;;;;;5077201;28;20034;-68
2022/06/20 09:07:33;;;;;;;6.40;2.08;;;19.00;99.90;;;;;;5075760;28;20373;-69
2022/06/20 09:10:15;;;;;;;8.68;2.33;;;18.60;99.90;;;;;;5064370;28;20108;-68
2022/06/20 09:13:20;;;;;;;7.93;2.20;;;18.50;99.90;;;;;;5081391;28;20052;-69
2022/06/20 09:15:48;;;;;;;6.05;2.38;;;18.60;99.90;;;;;;5072643;28;20034;-68
2022/06/20 09:18:28;;;;;;;14.15;2.42;;;18.50;99.90;;;;;;5073754;28;20048;-69
2022/06/20 09:21:14;;;;;;;8.95;2.53;;;18.20;99.90;;;;;;5055950;28;20029;-67
2022/06/20 09:23:43;;;;;;;6.45;2.45;;;18.30;99.90;;;;;;5087475;28;20499;-71
2022/06/20 09:26:18;;;;;;;9.90;2.58;;;18.20;99.90;;;;;;5080697;28;20062;-67
2022/06/20 09:29:08;;;;;;;15.68;2.95;;;18.10;99.90;;;;;;5075682;28;20117;-68
2022/06/20 09:31:53;;;;;;;10.02;2.75;;;18.70;99.90;;;;;;5084587;28;20099;-68
2022/06/20 09:34:47;;;;;;;7.20;2.55;;;19.40;99.90;;;;;;5071030;28;20034;-68
2022/06/20 09:37:35;;;;;;;13.13;2.75;;;19.60;99.90;;;;;;5073964;28;20346;-68
2022/06/20 09:40:21;;;;;;;12.30;3.30;;;19.60;99.60;;;;;;5056901;28;20118;-70
2022/06/20 09:43:09;;;;;;;15.10;3.25;;;19.40;99.90;;;;;;5074830;28;20017;-69
2022/06/20 09:45:45;;;;;;;8.65;3.15;;;19.40;99.90;;;;;;5079999;28;20036;-67
2022/06/20 09:48:17;;;;;;;9.95;3.17;;;19.30;99.90;;;;;;5073104;28;20461;-68
2022/06/20 09:51:11;;;;;;;13.68;3.17;;;19.10;99.90;;;;;;5075796;28;20037;-67
2022/06/20 09:53:59;;;;;;;9.65;3.05;;;19.70;99.90;;;;;;5084277;28;20484;-69
2022/06/20 09:56:27;;;;;;;17.05;3.20;;;19.70;99.90;;;;;;5093031;28;20028;-68
2022/06/20 09:59:04;;;;;;;14.25;3.30;;;20.40;99.90;;;;;;5093006;28;20058;-69
2022/06/20 10:02:00;;;;;;;13.30;3.38;;;20.00;98.30;;;;;;5093120;28;20089;-68
2022/06/20 10:04:46;;;;;;;8.20;2.88;;;20.00;99.40;;;;;;5074559;28;20035;-68
2022/06/20 10:07:28;;;;;;;10.80;3.30;;;20.40;98.20;;;;;;5092840;28;20381;-69
2022/06/20 10:10:09;;;;;;;7.13;2.67;;;20.20;98.70;;;;;;5092644;28;20034;-69
2022/06/20 10:12:59;;;;;;;10.10;3.33;;;19.70;99.00;;;;;;5074872;28;20778;-69
2022/06/20 10:15:57;;;;;;;10.98;3.55;;;19.90;99.90;;;;;;5073944;28;20388;-68
2022/06/20 10:18:29;;;;;;;12.07;3.53;;;20.10;99.10;;;;;;5062958;28;20150;-68
2022/06/20 10:21:10;;;;;;;18.38;3.08;;;19.30;99.90;;;;;;5089003;28;20082;-68
2022/06/20 10:23:51;;;;;;;15.98;3.10;;;19.20;99.90;;;;;;5092282;28;20020;-68
2022/06/20 10:26:23;;;;;;;9.57;2.47;;;19.30;99.90;;;;;;5074494;28;20032;-67
2022/06/20 10:29:07;;;;;;;;;;;19.80;98.90;;;;;;5081795;28;20465;-69
2022/06/20 10:31:40;;;;;;;8.40;2.20;;;20.10;98.60;;;;;;5089366;28;19908;-66
2022/06/20 10:34:43;;;;;;;7.40;2.13;;;19.90;98.50;;;;;;5081172;28;20484;-68
2022/06/20 10:37:23;;;;;;;7.60;2.15;;;20.00;98.20;;;;;;5062225;28;20033;-69
2022/06/20 10:40:01;;;;;;;9.13;1.95;;;21.10;97.70;;;;;;5071400;28;20119;-69
2022/06/20 10:42:33;;;;;;;9.25;2.60;;;20.60;95.90;;;;;;5072944;28;20074;-71
2022/06/20 10:45:02;;;;;;;9.85;2.33;;;19.60;97.00;;;;;;5072388;28;20028;-69
2022/06/20 10:47:46;;;;;;;11.43;2.45;;;19.60;98.30;;;;;;5072601;28;20024;-68
2022/06/20 10:50:38;;;;;;;8.63;2.63;;;19.70;98.00;;;;;;5072872;28;20033;-69
2022/06/20 10:53:30;;;;;;;14.20;2.78;;;20.30;96.90;;;;;;5083610;28;20034;-68
2022/06/20 10:56:14;;;;;;;;;;;20.40;95.90;;;;;;5069472;28;20040;-69
2022/06/20 10:58:48;;;;;;;6.32;2.40;;;20.20;97.90;;;;;;5074713;28;19920;-69
2022/06/20 11:01:19;;;;;;;6.22;2.22;;;20.50;97.40;;;;;;5092672;28;20028;-69
2022/06/20 11:04:04;;;;;;;10.20;3.15;;;20.40;96.30;;;;;;5080732;28;20497;-69
2022/06/20 11:07:10;;;;;;;9.70;2.80;;;20.40;98.10;;;;;;5093101;28;20369;-69
2022/06/20 11:09:40;;;;;;;10.10;2.15;;;20.50;98.30;;;;;;5082279;28;20032;-69
2022/06/20 11:12:11;;;;;;;13.68;2.65;;;20.70;97.90;;;;;;5092953;28;20032;-69
2022/06/20 11:14:42;;;;;;;;;;;20.90;96.40;;;;;;5093244;28;20399;-68
2022/06/20 11:17:26;;;;;;;11.30;2.35;;;20.80;96.70;;;;;;5074408;28;19908;-69
2022/06/20 11:19:55;;;;;;;9.18;2.42;;;20.70;96.90;;;;;;5067620;28;20044;-69
2022/06/20 11:22:37;;;;;;;12.30;2.83;;;20.80;97.30;;;;;;5092393;28;20082;-69
2022/06/20 11:25:15;;;;;;;12.65;3.03;;;21.60;97.20;;;;;;5069063;28;20032;-70
2022/06/20 11:27:41;;;;;;;9.05;2.85;;;22.10;94.80;;;;;;5095618;28;20106;-69
2022/06/20 11:30:11;;;;;;;8.90;2.55;;;22.30;94.00;;;;;;5096780;28;20111;-69
2022/06/20 11:32:57;;;;;;;7.03;2.17;;;22.30;94.60;;;;;;5096899;28;20067;-70
2022/06/20 11:35:47;;;;;;;11.40;2.75;;;22.60;93.60;;;;;;5085937;28;20546;-68
2022/06/20 11:38:42;;;;;;;10.25;2.95;;;22.00;95.10;;;;;;5095821;28;20039;-69
2022/06/20 11:41:43;;;;;;;14.68;2.63;;;21.40;94.80;;;;;;5096159;28;20024;-68
2022/06/20 11:44:37;;;;;;;12.13;2.75;;;21.50;97.50;;;;;;5063816;28;20044;-70
2022/06/20 11:47:40;;;;;;;11.43;2.95;;;22.10;95.90;;;;;;5092255;28;20038;-69
2022/06/20 11:50:21;;;;;;;7.25;2.28;;;21.70;95.10;;;;;;5095931;28;20024;-70
2022/06/20 11:53:09;;;;;;;9.82;2.85;;;21.60;96.00;;;;;;5084328;28;20077;-69
2022/06/20 11:55:46;;;;;;;15.98;2.78;;;22.20;95.40;;;;;;5096281;28;20032;-68
2022/06/20 11:58:33;;;;;;;11.15;2.65;;;22.30;95.50;;;;;;5096398;28;20040;-69
2022/06/20 12:01:04;;;;;;;11.20;3.03;;;22.80;94.90;;;;;;5096148;28;20028;-68
2022/06/20 12:03:40;;;;;;;;;;;23.10;94.00;;;;;;5092805;28;20035;-69
2022/06/20 12:06:14;;;;;;;7.35;2.53;;;23.50;93.60;;;;;;5068154;28;19954;-69
2022/06/20 12:08:52;;;;;;;7.78;2.72;;;23.20;92.70;;;;;;5096094;28;20039;-70
2022/06/20 12:11:40;;;;;;;10.27;2.92;;;23.30;93.90;;;;;;5069992;28;20065;-69
2022/06/20 12:14:24;;;;;;;11.25;2.42;;;23.20;92.80;;;;;;5095982;28;20044;-70
2022/06/20 12:17:17;;;;;;;8.65;2.88;;;23.60;93.20;;;;;;5096170;28;20028;-69
2022/06/20 12:25:26;;;;;;;11.77;3.20;;;23.20;93.80;;;;;;5096052;28;20043;-69
2022/06/20 12:27:52;;;;;;;13.30;2.53;;;23.40;93.70;;;;;;5077301;28;20021;-69
2022/06/20 12:30:19;;;;;;;11.23;2.70;;;23.20;93.30;;;;;;5095856;28;20036;-69
2022/06/20 12:32:49;;;;;;;11.25;2.92;;;23.50;92.80;;;;;;5095402;28;20028;-69
2022/06/20 12:35:31;;;;;;;13.25;3.03;;;24.20;92.90;;;;;;5095346;28;20069;-70
2022/06/20 12:38:08;;;;;;;7.43;2.63;;;24.90;92.10;;;;;;5094491;28;20067;-69
2022/06/20 12:41:04;;;;;;;10.32;3.22;;;25.40;91.20;;;;;;5095598;28;20035;-69
2022/06/20 12:44:00;;;;;;;14.52;2.92;;;25.00;91.80;;;;;;5095418;28;20060;-69
2022/06/20 12:46:38;;;;;;;11.75;2.90;;;24.70;91.90;;;;;;5087159;28;20048;-68
2022/06/20 12:49:29;;;;;;;7.95;2.70;;;24.20;91.30;;;;;;5095133;28;20377;-69
2022/06/20 12:52:35;;;;;;;13.70;3.78;;;23.50;92.10;;;;;;5062820;28;20067;-68
2022/06/20 12:55:22;;;;;;;18.23;3.00;;;23.60;92.30;;;;;;5095355;28;20647;-69
2022/06/20 12:57:50;;;;;;;9.18;2.75;;;23.70;92.60;;;;;;5094988;28;20077;-68
2022/06/20 13:00:26;;;;;;;12.52;3.78;;;23.80;91.90;;;;;;5077049;28;20119;-68
2022/06/20 13:03:10;;;;;;;13.15;3.10;;;24.60;92.00;;;;;;5095019;28;20103;-69
2022/06/20 13:05:58;;;;;;;12.38;3.97;;;25.10;91.80;;;;;;5106852;28;20034;-69
2022/06/20 13:08:58;;;;;;;16.05;3.20;;;25.00;91.40;;;;;;5076858;28;20037;-69
2022/06/20 13:11:43;;;;;;;14.07;2.72;;;23.50;92.00;;;;;;5070681;28;20529;-68
2022/06/20 13:14:27;;;;;;;14.50;2.90;;;23.40;91.80;;;;;;5094776;28;20032;-68
2022/06/20 13:17:11;;;;;;;12.38;2.75;;;23.30;92.70;;;;;;5094967;28;20040;-68
2022/06/20 13:20:10;;;;;;;14.38;3.05;;;23.40;91.90;;;;;;5076429;28;20046;-69
2022/06/20 13:23:17;;;;;;;14.02;2.97;;;23.70;92.90;;;;;;5094790;28;20031;-69
2022/06/20 13:25:50;;;;;;;12.98;2.60;;;24.60;91.90;;;;;;5086422;28;20036;-69
2022/06/20 13:28:33;;;;;;;11.10;3.28;;;23.80;91.60;;;;;;5067945;28;20040;-68
2022/06/20 13:31:25;;;;;;;12.50;3.08;;;23.90;91.90;;;;;;5094509;28;20384;-69
2022/06/20 13:34:19;;;;;;;12.98;3.58;;;23.80;91.60;;;;;;5094196;28;20035;-68
2022/06/20 13:36:54;;;;;;;11.70;2.95;;;24.00;92.20;;;;;;5067291;28;20016;-69
2022/06/20 13:39:26;;;;;;;11.93;3.45;;;24.20;90.90;;;;;;5094457;28;20082;-69
2022/06/20 13:41:57;;;;;;;12.52;2.13;;;24.80;91.40;;;;;;5067524;28;20111;-68
2022/06/20 13:44:25;;;;;;;10.02;2.63;;;25.00;90.80;;;;;;5094362;28;20569;-68
2022/06/20 13:47:29;;;;;;;7.95;2.28;;;25.10;90.50;;;;;;5089543;28;20465;-69
2022/06/20 13:50:02;;;;;;;19.48;2.83;;;24.10;90.60;;;;;;5074677;28;20028;-68
2022/06/20 13:52:35;;;;;;;11.32;2.85;;;24.20;91.10;;;;;;5065903;28;20035;-68
2022/06/20 13:55:13;;;;;;;9.75;2.50;;;24.40;91.00;;;;;;5094003;28;20028;-68
2022/06/20 13:57:50;;;;;;;10.07;2.85;;;25.70;90.70;;;;;;5066903;28;20024;-70
2022/06/20 14:00:15;;;;;;;8.25;2.58;;;26.60;88.80;;;;;;5093845;28;20093;-70